Time;durP1;ratioP1;P1;durP2;ratioP2;P2;SDS_P1;SDS_P2;PMS_P1;PMS_P2;Temp;Humidity;BMP_temperature;BMP_pressure;BME280_temperature;BME280_humidity;BME280_pressure;Samples;Min_cycle;Max_cycle;Signal;HPM_P1;HPM_P2
2022/06/28 00:04:07;;;;;;;1.60;0.70;;;16.80;99.90;;;;;;10192564;28;20055;-89
2022/06/28 00:09:11;;;;;;;1.23;0.50;;;16.60;99.90;;;;;;10207424;28;20098;-88
2022/06/28 00:19:34;;;;;;;2.05;0.90;;;16.50;99.90;;;;;;10219092;28;20146;-88
2022/06/28 00:24:36;;;;;;;1.55;0.47;;;16.40;99.90;;;;;;10206530;29;20068;-89
2022/06/28 00:29:38;;;;;;;1.52;0.68;;;16.30;99.90;;;;;;10201633;29;20091;-89
2022/06/28 00:34:40;;;;;;;3.03;0.80;;;16.10;99.90;;;;;;10205349;29;20138;-88
2022/06/28 00:39:42;;;;;;;1.83;1.20;;;16.00;99.90;;;;;;10192340;28;20675;-88
2022/06/28 00:44:44;;;;;;;2.45;1.20;;;16.00;99.90;;;;;;10201509;29;20082;-89
2022/06/28 00:49:46;;;;;;;3.58;1.90;;;16.00;99.90;;;;;;10182564;28;20051;-89
2022/06/28 00:54:48;;;;;;;4.13;1.65;;;16.00;99.90;;;;;;10221679;28;20134;-89
2022/06/28 00:59:50;;;;;;;3.75;1.45;;;15.90;99.90;;;;;;10192433;28;20052;-89
2022/06/28 01:04:52;;;;;;;2.88;1.63;;;15.90;99.90;;;;;;10204092;28;20051;-88
2022/06/28 01:09:53;;;;;;;4.40;2.10;;;15.90;99.90;;;;;;10214355;28;20138;-89
2022/06/28 01:14:55;;;;;;;4.50;1.60;;;15.90;99.90;;;;;;10198448;28;20058;-89
2022/06/28 01:19:57;;;;;;;4.78;2.15;;;15.90;99.90;;;;;;10198620;28;20062;-89
2022/06/28 01:24:59;;;;;;;5.72;2.42;;;15.80;99.90;;;;;;10210445;29;20055;-89
2022/06/28 01:30:06;;;;;;;7.60;2.42;;;15.70;99.90;;;;;;10210867;28;20051;-89
2022/06/28 01:35:08;;;;;;;4.13;2.17;;;15.70;99.90;;;;;;10226523;28;20155;-89
2022/06/28 01:40:10;;;;;;;4.35;2.20;;;15.70;99.90;;;;;;10229252;28;20135;-89
2022/06/28 01:45:14;;;;;;;8.20;2.72;;;15.70;99.90;;;;;;10208977;29;20055;-89
2022/06/28 01:50:16;;;;;;;2.20;1.95;;;15.60;99.90;;;;;;10230129;28;20075;-89
2022/06/28 01:55:18;;;;;;;3.25;2.50;;;15.60;99.90;;;;;;10214800;28;20060;-88
2022/06/28 02:00:19;;;;;;;4.63;2.53;;;15.50;99.90;;;;;;10205421;29;20055;-88
2022/06/28 02:05:21;;;;;;;5.35;2.97;;;15.30;99.90;;;;;;10188376;28;20111;-88
2022/06/28 02:10:24;;;;;;;6.43;3.75;;;15.30;99.90;;;;;;10185460;29;20060;-89
2022/06/28 02:15:25;;;;;;;7.47;2.92;;;15.10;99.90;;;;;;10188776;28;20276;-89
2022/06/28 02:20:28;;;;;;;6.40;3.72;;;15.10;99.90;;;;;;10195956;29;20079;-88
2022/06/28 02:25:29;;;;;;;6.90;3.55;;;15.10;99.90;;;;;;10230786;28;20051;-88
2022/06/28 02:30:31;;;;;;;6.18;3.50;;;15.10;99.90;;;;;;10192698;29;20063;-88
2022/06/28 02:40:53;;;;;;;6.97;4.53;;;14.90;99.90;;;;;;10212088;28;20067;-88
2022/06/28 02:45:55;;;;;;;6.40;3.88;;;14.80;99.90;;;;;;10204820;28;20059;-88
2022/06/28 02:51:02;;;;;;;12.85;3.97;;;14.70;99.90;;;;;;10206194;29;20059;-89
2022/06/28 02:56:04;;;;;;;6.15;3.90;;;14.60;99.90;;;;;;10206742;28;20130;-89
2022/06/28 03:01:06;;;;;;;6.53;3.78;;;14.50;99.90;;;;;;10209562;28;20062;-89
2022/06/28 03:06:08;;;;;;;9.55;3.60;;;14.40;99.90;;;;;;10201905;28;20059;-88
2022/06/28 03:11:10;;;;;;;5.70;3.85;;;14.30;99.90;;;;;;10225117;28;20075;-88
2022/06/28 03:16:11;;;;;;;5.05;3.63;;;14.30;99.90;;;;;;10186246;28;20074;-89
2022/06/28 03:21:13;;;;;;;7.22;3.78;;;14.20;99.90;;;;;;10208360;28;20135;-88
2022/06/28 03:26:15;;;;;;;9.02;4.05;;;14.20;99.90;;;;;;10195924;28;20510;-88
2022/06/28 03:31:17;;;;;;;8.85;4.07;;;14.10;99.90;;;;;;10210388;28;20067;-88
2022/06/28 03:36:19;;;;;;;6.97;4.43;;;14.00;99.90;;;;;;10212661;29;20521;-88
2022/06/28 03:41:23;;;;;;;6.75;4.38;;;13.90;99.90;;;;;;10207126;28;20043;-88
2022/06/28 03:46:25;;;;;;;7.18;4.10;;;13.90;99.90;;;;;;10190065;28;20953;-88
2022/06/28 03:51:27;;;;;;;6.15;3.70;;;13.90;99.90;;;;;;10218609;28;20125;-89
2022/06/28 03:56:29;;;;;;;8.70;4.15;;;13.90;99.90;;;;;;10204206;28;20054;-89
2022/06/28 04:01:31;;;;;;;9.90;4.32;;;13.90;99.90;;;;;;10213449;28;20060;-89
2022/06/28 04:06:32;;;;;;;6.18;3.70;;;14.00;99.90;;;;;;10189300;28;20151;-89
2022/06/28 04:11:34;;;;;;;6.70;4.03;;;14.10;99.90;;;;;;10210352;28;20095;-89
2022/06/28 04:16:36;;;;;;;6.82;3.95;;;14.10;99.90;;;;;;10186737;29;20064;-89
2022/06/28 04:21:38;;;;;;;6.15;3.95;;;14.20;99.90;;;;;;10203256;28;20622;-88
2022/06/28 04:26:40;;;;;;;7.32;4.35;;;14.20;99.90;;;;;;10199882;28;20051;-88
2022/06/28 04:31:42;;;;;;;8.50;3.95;;;14.30;99.90;;;;;;10186130;28;20055;-88
2022/06/28 04:36:44;;;;;;;6.28;3.63;;;14.30;99.90;;;;;;10195134;28;20517;-87
2022/06/28 04:41:45;;;;;;;7.80;3.13;;;14.40;99.90;;;;;;10202922;29;20047;-88
2022/06/28 04:46:47;;;;;;;8.90;3.05;;;14.40;99.90;;;;;;10219226;28;20107;-88
2022/06/28 04:51:49;;;;;;;8.15;3.63;;;14.50;99.90;;;;;;10213439;28;20062;-89
2022/06/28 04:56:52;;;;;;;5.57;3.47;;;14.60;99.90;;;;;;10209834;28;20055;-90
2022/06/28 05:01:53;;;;;;;7.82;3.30;;;14.60;99.90;;;;;;10222716;28;20043;-89
2022/06/28 05:06:55;;;;;;;7.82;3.65;;;14.80;99.90;;;;;;10218185;28;20047;-89
2022/06/28 05:11:57;;;;;;;10.43;4.25;;;14.90;99.90;;;;;;10203860;28;20397;-89
2022/06/28 05:16:59;;;;;;;6.43;4.07;;;15.00;99.90;;;;;;10218170;28;20066;-89
2022/06/28 05:22:01;;;;;;;9.98;4.03;;;15.10;99.90;;;;;;10215536;28;20067;-88
2022/06/28 05:27:04;;;;;;;6.68;4.32;;;15.20;99.90;;;;;;10215387;28;20047;-88
2022/06/28 05:32:07;;;;;;;11.60;4.45;;;15.20;99.90;;;;;;10196600;28;20146;-89
2022/06/28 05:37:09;;;;;;;6.65;3.83;;;15.30;99.90;;;;;;10191504;28;20366;-88
2022/06/28 05:42:11;;;;;;;6.43;4.13;;;15.40;99.90;;;;;;10204832;28;20486;-88
2022/06/28 05:47:13;;;;;;;6.30;3.40;;;15.60;99.90;;;;;;10190691;29;20067;-89
2022/06/28 05:52:15;;;;;;;5.00;3.60;;;15.70;99.90;;;;;;10213036;28;20089;-88
2022/06/28 05:57:16;;;;;;;5.25;3.38;;;15.90;99.90;;;;;;10227555;28;20058;-88
2022/06/28 06:02:18;;;;;;;8.60;3.60;;;16.00;99.90;;;;;;10199761;28;20058;-88
2022/06/28 06:07:20;;;;;;;9.20;3.50;;;16.20;99.90;;;;;;10211778;29;20043;-87
2022/06/28 06:12:22;;;;;;;10.70;3.70;;;16.20;99.90;;;;;;10223650;28;20066;-87
2022/06/28 06:17:25;;;;;;;8.18;3.92;;;16.30;99.90;;;;;;10208401;28;20066;-88
2022/06/28 06:22:26;;;;;;;8.13;3.08;;;16.40;99.90;;;;;;10222262;28;20135;-88
2022/06/28 06:27:28;;;;;;;7.68;3.67;;;16.60;99.90;;;;;;10188458;28;20047;-87
2022/06/28 06:32:30;;;;;;;6.05;2.85;;;16.70;99.90;;;;;;10212244;29;20057;-88
2022/06/28 06:37:32;;;;;;;5.43;2.50;;;16.90;99.90;;;;;;10215514;29;20283;-87
2022/06/28 06:42:34;;;;;;;4.70;2.60;;;16.90;99.90;;;;;;10208003;29;20063;-87
2022/06/28 06:47:36;;;;;;;2.85;1.70;;;17.10;99.90;;;;;;10202438;28;20055;-87
2022/06/28 06:52:39;;;;;;;1.15;0.80;;;17.20;99.90;;;;;;10213347;29;20082;-88
2022/06/28 06:57:41;;;;;;;7.32;1.20;;;17.40;99.90;;;;;;10195843;28;20047;-89
2022/06/28 07:02:43;;;;;;;3.70;1.13;;;17.50;99.90;;;;;;10188143;28;20082;-89
2022/06/28 07:07:46;;;;;;;4.55;0.50;;;17.70;99.90;;;;;;10225323;28;20081;-89
2022/06/28 07:12:48;;;;;;;1.17;0.40;;;17.70;99.90;;;;;;10207635;28;21846;-89
2022/06/28 07:17:50;;;;;;;1.20;0.30;;;17.80;99.90;;;;;;10192260;28;20051;-89
2022/06/28 07:22:52;;;;;;;1.83;0.52;;;17.90;99.90;;;;;;10195476;28;20043;-89
2022/06/28 07:27:54;;;;;;;1.30;0.60;;;18.00;99.90;;;;;;10222009;28;20051;-89
2022/06/28 07:32:55;;;;;;;0.82;0.40;;;18.00;99.90;;;;;;10220448;28;20115;-89
2022/06/28 07:37:58;;;;;;;0.60;0.40;;;18.20;99.90;;;;;;10205154;28;20140;-89
2022/06/28 07:43:00;;;;;;;2.25;0.30;;;18.40;99.90;;;;;;10204321;29;20263;-89
2022/06/28 07:48:07;;;;;;;0.85;0.20;;;18.50;99.90;;;;;;10176882;29;20063;-89
2022/06/28 07:53:08;;;;;;;0.70;0.30;;;18.60;99.90;;;;;;10186342;28;20059;-89
2022/06/28 07:58:10;;;;;;;0.93;0.10;;;18.80;99.90;;;;;;10208929;28;20063;-89
2022/06/28 08:03:12;;;;;;;0.32;0.20;;;18.90;99.90;;;;;;10208465;28;20054;-89
2022/06/28 08:08:14;;;;;;;0.30;0.10;;;19.10;99.90;;;;;;10207251;29;20050;-89
2022/06/28 08:13:17;;;;;;;2.10;0.20;;;19.40;99.80;;;;;;10210871;28;20047;-89
2022/06/28 08:18:19;;;;;;;0.90;0.20;;;19.50;99.30;;;;;;10192982;28;20055;-89
2022/06/28 08:23:21;;;;;;;0.30;0.20;;;19.60;99.90;;;;;;10197265;28;20937;-88
2022/06/28 08:28:24;;;;;;;0.20;0.10;;;19.80;98.10;;;;;;10199676;28;20078;-88
2022/06/28 08:33:26;;;;;;;0.50;0.20;;;19.90;98.60;;;;;;10212242;29;20059;-88
2022/06/28 08:38:28;;;;;;;0.73;0.20;;;20.00;97.90;;;;;;10205387;28;20066;-88
2022/06/28 08:43:31;;;;;;;0.20;0.10;;;20.30;95.70;;;;;;10211599;28;20055;-88
2022/06/28 08:48:42;;;;;;;2.47;0.13;;;20.40;95.90;;;;;;10207002;28;20062;-88
2022/06/28 08:53:46;;;;;;;0.93;0.10;;;20.60;94.30;;;;;;10207769;28;20059;-88
2022/06/28 08:58:48;;;;;;;0.32;0.20;;;20.80;93.60;;;;;;10220202;28;20110;-87
2022/06/28 09:03:52;;;;;;;0.28;0.20;;;21.00;93.60;;;;;;10211274;28;20054;-88
2022/06/28 09:08:54;;;;;;;0.85;0.10;;;21.10;91.30;;;;;;10210330;28;20580;-88
2022/06/28 09:13:55;;;;;;;0.50;0.13;;;21.20;92.50;;;;;;10204153;28;20624;-89
2022/06/28 09:18:58;;;;;;;0.65;0.10;;;21.50;91.80;;;;;;10207989;28;20060;-89
2022/06/28 09:24:02;;;;;;;0.30;0.10;;;21.50;90.80;;;;;;10204228;28;20051;-88
2022/06/28 09:29:12;;;;;;;0.85;0.20;;;21.70;91.50;;;;;;10193019;28;20327;-89
2022/06/28 09:34:14;;;;;;;0.55;0.10;;;22.00;90.10;;;;;;10186969;28;20096;-88
2022/06/28 09:39:18;;;;;;;0.20;0.10;;;22.00;89.40;;;;;;10193474;28;20149;-88
2022/06/28 09:44:27;;;;;;;1.20;0.13;;;22.30;90.20;;;;;;10210573;28;20142;-88
2022/06/28 09:49:30;;;;;;;1.40;0.10;;;22.50;87.70;;;;;;10226995;28;20130;-88
2022/06/28 09:54:36;;;;;;;0.57;0.15;;;22.50;85.80;;;;;;10206187;28;20061;-89
2022/06/28 09:59:39;;;;;;;2.67;0.05;;;22.60;82.20;;;;;;10210583;28;20087;-89
2022/06/28 10:04:42;;;;;;;1.27;0.15;;;22.80;81.90;;;;;;10216227;29;20178;-89
2022/06/28 10:09:48;;;;;;;2.05;0.10;;;22.80;84.30;;;;;;10198330;28;20054;-89
2022/06/28 10:15:01;;;;;;;3.45;0.73;;;23.00;82.10;;;;;;10189121;28;20059;-89
2022/06/28 10:20:06;;;;;;;1.85;0.30;;;23.30;84.40;;;;;;10223569;28;20071;-89
2022/06/28 10:25:17;;;;;;;3.20;0.10;;;23.00;76.20;;;;;;10211288;28;20078;-88
2022/06/28 10:30:22;;;;;;;0.17;0.10;;;23.30;81.80;;;;;;10212999;28;20055;-89
2022/06/28 10:35:32;;;;;;;0.93;0.10;;;23.60;75.90;;;;;;10226411;28;20109;-89
2022/06/28 10:40:45;;;;;;;0.88;0.10;;;23.50;75.40;;;;;;10202687;28;20155;-89
2022/06/28 10:46:00;;;;;;;0.68;0.10;;;23.80;73.10;;;;;;10207153;28;20470;-89
2022/06/28 10:51:04;;;;;;;1.92;0.20;;;24.00;72.00;;;;;;10223153;28;20055;-89
2022/06/28 10:56:14;;;;;;;3.83;0.13;;;24.50;71.70;;;;;;10194710;29;20610;-90
2022/06/28 11:01:41;;;;;;;1.20;0.20;;;24.70;68.70;;;;;;10193815;28;20051;-90
2022/06/28 11:06:46;;;;;;;0.65;0.30;;;25.10;66.50;;;;;;10194134;28;20101;-90
2022/06/28 11:12:09;;;;;;;1.77;0.10;;;25.20;64.60;;;;;;10183630;28;20059;-90
2022/06/28 11:17:16;;;;;;;0.70;0.10;;;25.60;66.00;;;;;;10195968;28;20043;-90
2022/06/28 11:22:23;;;;;;;2.58;0.10;;;25.70;65.50;;;;;;10211515;28;20177;-90
2022/06/28 11:27:26;;;;;;;2.45;0.17;;;25.90;64.70;;;;;;10188437;28;20106;-89
2022/06/28 11:32:31;;;;;;;0.55;0.10;;;26.20;66.20;;;;;;10229062;28;20069;-89
2022/06/28 11:37:46;;;;;;;0.45;0.10;;;26.40;67.10;;;;;;10201563;28;20052;-90
2022/06/28 11:43:07;;;;;;;0.90;0.10;;;26.60;64.60;;;;;;10190618;28;20055;-89
2022/06/28 11:48:14;;;;;;;0.25;0.10;;;26.50;63.10;;;;;;10225402;28;20069;-89
2022/06/28 11:53:16;;;;;;;0.68;0.17;;;26.90;62.70;;;;;;10190399;28;20055;-85
2022/06/28 11:58:18;;;;;;;0.77;0.35;;;26.70;57.30;;;;;;10219644;28;20372;-86
2022/06/28 12:03:20;;;;;;;1.58;0.10;;;27.00;61.40;;;;;;10230914;28;20083;-87
2022/06/28 12:08:22;;;;;;;1.33;0.10;;;27.20;59.30;;;;;;10202581;28;20063;-87
2022/06/28 12:13:24;;;;;;;0.30;0.10;;;27.20;58.00;;;;;;10217310;29;20058;-86
2022/06/28 12:18:25;;;;;;;0.98;0.10;;;27.20;57.60;;;;;;10236612;28;20063;-87
2022/06/28 12:23:27;;;;;;;0.30;0.10;;;27.40;58.30;;;;;;10217221;28;20127;-86
2022/06/28 12:28:29;;;;;;;1.13;0.40;;;27.90;58.20;;;;;;10198041;28;20054;-86
2022/06/28 12:33:31;;;;;;;0.17;0.03;;;27.70;58.30;;;;;;10197274;28;20477;-86
2022/06/28 12:38:33;;;;;;;0.57;0.10;;;27.90;56.70;;;;;;10201387;28;20058;-87
2022/06/28 12:43:35;;;;;;;3.85;0.10;;;28.00;54.70;;;;;;10213020;29;20071;-86
2022/06/28 12:48:36;;;;;;;3.35;0.10;;;28.20;55.40;;;;;;10206780;28;20075;-86
2022/06/28 12:53:38;;;;;;;0.10;0.00;;;28.30;55.40;;;;;;10220164;28;20098;-87
2022/06/28 12:58:42;;;;;;;0.63;0.10;;;28.10;54.80;;;;;;10206005;28;20051;-87
2022/06/28 13:03:44;;;;;;;2.03;0.10;;;28.30;52.70;;;;;;10206513;28;20077;-87
2022/06/28 13:08:45;;;;;;;2.33;0.05;;;28.20;55.50;;;;;;10216488;28;20051;-87
2022/06/28 13:13:47;;;;;;;1.65;0.20;;;28.40;55.50;;;;;;10208017;28;20144;-87
2022/06/28 13:18:49;;;;;;;0.75;0.00;;;28.50;55.60;;;;;;10212257;28;20074;-87
2022/06/28 13:23:51;;;;;;;3.22;0.10;;;28.80;54.20;;;;;;10199038;28;20066;-88
2022/06/28 13:28:53;;;;;;;0.20;0.10;;;28.40;54.10;;;;;;10211486;28;20168;-88
2022/06/28 13:34:10;;;;;;;2.63;0.10;;;28.80;54.20;;;;;;10201701;28;20470;-88
2022/06/28 13:39:23;;;;;;;3.28;0.20;;;29.00;54.40;;;;;;10165126;28;20122;-88
2022/06/28 13:44:25;;;;;;;0.60;0.10;;;28.90;55.00;;;;;;10227220;28;20169;-88
2022/06/28 13:49:45;;;;;;;1.33;0.10;;;29.20;55.30;;;;;;10228191;28;20058;-88
2022/06/28 13:54:47;;;;;;;1.80;0.10;;;29.30;50.90;;;;;;10211701;28;20058;-88
2022/06/28 13:59:51;;;;;;;0.20;0.00;;;29.40;53.00;;;;;;10199641;28;20055;-89
2022/06/28 14:04:54;;;;;;;0.45;0.05;;;30.20;52.20;;;;;;10214456;29;20053;-89
2022/06/28 14:09:57;;;;;;;0.93;0.17;;;29.50;52.50;;;;;;10190396;28;20056;-89
2022/06/28 14:14:58;;;;;;;0.85;0.10;;;29.90;53.20;;;;;;10179092;29;20071;-87
2022/06/28 14:20:00;;;;;;;1.20;0.00;;;30.30;51.10;;;;;;10156568;29;20048;-87
2022/06/28 14:25:02;;;;;;;0.10;0.00;;;30.30;50.60;;;;;;10181647;28;20127;-87
2022/06/28 14:30:05;;;;;;;0.63;0.10;;;30.00;52.40;;;;;;10169706;28;20139;-88
2022/06/28 14:35:08;;;;;;;0.20;0.10;;;30.30;51.70;;;;;;10223718;28;20601;-87
2022/06/28 14:40:22;;;;;;;0.10;0.00;;;30.20;49.40;;;;;;10212603;28;20135;-87
2022/06/28 14:45:24;;;;;;;0.17;0.10;;;30.40;52.10;;;;;;10202771;28;20083;-87
2022/06/28 14:50:46;;;;;;;0.10;0.10;;;30.20;52.60;;;;;;10202730;29;20051;-88
2022/06/28 14:55:52;;;;;;;0.68;0.10;;;30.00;49.50;;;;;;10229827;28;20052;-87
2022/06/28 15:00:54;;;;;;;1.25;0.08;;;29.60;50.00;;;;;;10216017;28;20055;-88
2022/06/28 15:05:57;;;;;;;1.95;0.10;;;29.90;51.30;;;;;;10217654;28;20105;-88
2022/06/28 15:11:02;;;;;;;1.80;0.10;;;30.30;52.40;;;;;;10171904;28;20052;-87
2022/06/28 15:16:04;;;;;;;2.15;0.10;;;30.20;48.40;;;;;;10214087;28;20122;-87
2022/06/28 15:30:51;;;;;;;0.25;0.00;;;30.70;49.30;;;;;;10200344;29;20130;-89
2022/06/28 15:32:10;;;;;;;0.73;0.10;;;30.90;51.20;;;;;;10223363;28;20111;-89
2022/06/28 15:37:12;;;;;;;1.20;0.10;;;30.90;48.30;;;;;;10209970;28;20061;-89
2022/06/28 15:42:13;;;;;;;2.67;0.10;;;30.70;50.70;;;;;;10197670;28;20797;-89
2022/06/28 15:47:16;;;;;;;0.57;0.00;;;30.60;48.60;;;;;;10174416;28;20059;-88
2022/06/28 15:52:18;;;;;;;0.15;0.10;;;29.90;50.00;;;;;;10172977;28;20067;-89
2022/06/28 15:57:19;;;;;;;0.40;0.10;;;30.20;51.10;;;;;;10188691;28;20064;-89
2022/06/28 16:02:21;;;;;;;1.08;0.10;;;30.30;50.20;;;;;;10215843;28;20051;-89
2022/06/28 16:07:25;;;;;;;0.10;0.10;;;30.30;52.10;;;;;;10202775;28;20522;-88
2022/06/28 16:17:59;;;;;;;1.35;0.10;;;30.00;50.30;;;;;;10200749;28;20447;-88
2022/06/28 16:23:02;;;;;;;2.17;0.10;;;30.80;50.90;;;;;;10187121;28;20047;-88
2022/06/28 16:28:06;;;;;;;0.10;0.10;;;31.00;49.40;;;;;;10194121;29;20147;-88
2022/06/28 16:33:09;;;;;;;2.58;0.10;;;30.60;49.50;;;;;;10195348;28;20059;-89
2022/06/28 16:38:11;;;;;;;0.03;0.00;;;30.70;49.80;;;;;;10205952;28;20573;-88
2022/06/28 16:43:13;;;;;;;0.32;0.03;;;30.50;49.20;;;;;;10221408;28;20095;-88
2022/06/28 16:48:15;;;;;;;1.05;0.40;;;30.80;50.80;;;;;;10229229;28;20047;-89
2022/06/28 16:53:16;;;;;;;2.50;0.10;;;30.60;50.70;;;;;;10226287;28;20058;-88
2022/06/28 16:58:18;;;;;;;1.10;0.35;;;30.60;50.10;;;;;;10218320;28;20047;-88
2022/06/28 17:03:20;;;;;;;0.20;0.10;;;30.80;50.80;;;;;;10247953;28;20052;-89
2022/06/28 17:08:22;;;;;;;0.20;0.10;;;30.90;49.50;;;;;;10214033;28;20063;-89
2022/06/28 17:13:26;;;;;;;0.52;0.10;;;30.90;50.10;;;;;;10241138;28;20051;-88
2022/06/28 17:18:27;;;;;;;0.52;0.10;;;31.10;50.30;;;;;;10215642;28;20233;-89
2022/06/28 17:23:31;;;;;;;0.77;0.10;;;31.00;49.80;;;;;;10210525;28;20059;-90
2022/06/28 17:28:33;;;;;;;0.30;0.17;;;31.10;48.60;;;;;;10233639;28;20138;-86
2022/06/28 17:33:35;;;;;;;0.75;0.08;;;30.90;48.10;;;;;;10211513;29;20155;-88
2022/06/28 17:38:37;;;;;;;1.55;0.10;;;30.90;49.20;;;;;;10238794;28;20079;-89
2022/06/28 17:43:40;;;;;;;0.68;0.10;;;30.90;48.80;;;;;;10201495;28;20546;-86
2022/06/28 17:48:43;;;;;;;0.60;0.08;;;30.60;48.50;;;;;;10217167;28;20055;-87
2022/06/28 17:53:44;;;;;;;0.73;0.10;;;30.40;48.90;;;;;;10207610;28;20090;-87
2022/06/28 17:58:46;;;;;;;4.05;0.10;;;30.20;50.50;;;;;;10203838;28;20075;-86
2022/06/28 18:03:48;;;;;;;0.73;0.10;;;29.90;52.10;;;;;;10146181;29;20099;-89
2022/06/28 18:08:51;;;;;;;1.02;0.10;;;29.80;51.80;;;;;;10192968;28;20120;-89
2022/06/28 18:13:53;;;;;;;3.40;0.10;;;29.30;52.10;;;;;;10238670;28;20126;-88
2022/06/28 18:18:55;;;;;;;1.92;0.10;;;29.10;53.00;;;;;;10214236;28;20052;-88
2022/06/28 18:23:57;;;;;;;1.17;0.17;;;28.60;53.80;;;;;;10205925;28;20055;-91
2022/06/28 18:28:59;;;;;;;7.32;0.20;;;28.20;54.90;;;;;;10198626;28;20138;-88
2022/06/28 18:34:01;;;;;;;4.88;0.70;;;27.70;56.20;;;;;;10202033;28;20051;-86
2022/06/28 18:39:04;;;;;;;8.48;0.20;;;27.00;57.00;;;;;;10219590;28;20070;-85
2022/06/28 18:44:05;;;;;;;10.60;0.20;;;26.60;58.10;;;;;;10234890;28;20052;-86
2022/06/28 18:49:07;;;;;;;7.80;0.75;;;26.10;58.90;;;;;;10232896;28;20392;-85
2022/06/28 18:54:09;;;;;;;12.18;0.88;;;25.70;60.10;;;;;;10220918;28;20051;-85
2022/06/28 18:59:11;;;;;;;4.78;0.20;;;25.50;60.60;;;;;;10224762;28;20051;-86
2022/06/28 19:04:12;;;;;;;1.20;0.20;;;25.20;62.30;;;;;;10225811;28;20066;-89
2022/06/28 19:09:14;;;;;;;4.63;0.30;;;25.00;64.00;;;;;;10215943;28;20111;-89
2022/06/28 19:14:16;;;;;;;5.93;0.30;;;24.70;65.50;;;;;;10200234;28;20047;-88
2022/06/28 19:19:25;;;;;;;2.80;0.40;;;24.40;66.80;;;;;;10235558;28;20066;-88
2022/06/28 19:24:27;;;;;;;3.47;0.25;;;24.10;66.90;;;;;;10224049;28;20078;-88
2022/06/28 19:29:29;;;;;;;1.20;0.28;;;23.90;67.10;;;;;;10215448;28;20118;-88
2022/06/28 19:34:31;;;;;;;0.68;0.20;;;23.70;67.30;;;;;;10213723;29;20054;-88
2022/06/28 19:39:33;;;;;;;3.67;0.20;;;23.40;68.10;;;;;;10199983;28;20134;-88
2022/06/28 19:44:36;;;;;;;1.65;0.10;;;23.30;67.40;;;;;;10198167;28;20066;-87
2022/06/28 19:49:38;;;;;;;0.70;0.20;;;23.10;67.50;;;;;;10211434;28;20067;-88
2022/06/28 19:54:39;;;;;;;1.50;0.10;;;22.90;67.50;;;;;;10144310;29;20630;-88
2022/06/28 19:59:43;;;;;;;2.85;0.30;;;22.70;67.90;;;;;;10163658;28;20059;-88
2022/06/28 20:04:45;;;;;;;2.40;0.17;;;22.50;68.80;;;;;;10209006;28;20123;-88
2022/06/28 20:09:47;;;;;;;1.38;0.20;;;22.40;70.30;;;;;;10206110;28;20047;-88
2022/06/28 20:14:49;;;;;;;1.63;0.10;;;22.30;71.10;;;;;;10197410;28;20051;-88
2022/06/28 20:19:51;;;;;;;0.68;0.20;;;22.10;71.80;;;;;;10203243;28;20051;-88
2022/06/28 20:24:53;;;;;;;3.25;0.20;;;21.90;73.10;;;;;;10213288;28;20131;-88
2022/06/28 20:29:54;;;;;;;0.63;0.20;;;21.80;72.20;;;;;;10211617;28;20055;-88
2022/06/28 20:34:56;;;;;;;0.43;0.10;;;21.70;72.60;;;;;;10203044;28;20050;-88
2022/06/28 20:39:58;;;;;;;1.73;0.20;;;21.60;72.00;;;;;;10207628;28;20059;-89
2022/06/28 20:45:04;;;;;;;1.00;0.30;;;21.50;72.40;;;;;;10214256;28;20050;-89
2022/06/28 20:50:07;;;;;;;0.50;0.20;;;21.40;72.60;;;;;;10197301;28;20087;-89
2022/06/28 20:55:10;;;;;;;2.55;0.20;;;21.30;73.40;;;;;;10185783;28;20283;-89
2022/06/28 21:00:12;;;;;;;2.17;0.22;;;21.20;74.50;;;;;;10223381;28;20447;-89
2022/06/28 21:05:15;;;;;;;1.90;0.22;;;21.10;75.90;;;;;;10207363;28;20499;-89
2022/06/28 21:10:16;;;;;;;2.25;0.20;;;21.00;76.40;;;;;;10219554;28;20055;-89
2022/06/28 21:15:18;;;;;;;2.63;0.15;;;20.90;76.80;;;;;;10209672;28;20058;-89
2022/06/28 21:20:20;;;;;;;3.47;0.28;;;20.80;77.50;;;;;;10214530;28;20089;-88
2022/06/28 21:25:22;;;;;;;3.33;0.30;;;20.70;78.50;;;;;;10219616;28;20059;-90
2022/06/28 21:30:24;;;;;;;1.48;0.30;;;20.70;78.60;;;;;;10220670;28;20063;-91
2022/06/28 21:35:27;;;;;;;1.42;0.30;;;20.60;79.00;;;;;;10208646;28;20065;-90
2022/06/28 21:40:29;;;;;;;1.63;0.30;;;20.50;79.00;;;;;;10211117;29;20098;-90
2022/06/28 21:45:33;;;;;;;1.13;0.50;;;20.50;79.80;;;;;;10228408;28;20055;-90
2022/06/28 21:50:36;;;;;;;1.50;0.40;;;20.50;79.50;;;;;;10244028;28;20072;-90
2022/06/28 21:55:38;;;;;;;1.48;0.30;;;20.50;80.00;;;;;;10207465;28;20056;-90
2022/06/28 22:00:40;;;;;;;1.48;0.40;;;20.40;79.80;;;;;;10205837;28;20055;-90
2022/06/28 22:05:42;;;;;;;2.38;0.20;;;20.50;80.30;;;;;;10229314;28;20062;-90
2022/06/28 22:10:44;;;;;;;1.00;0.47;;;20.40;79.70;;;;;;10204455;28;20057;-90
2022/06/28 22:15:46;;;;;;;2.35;0.20;;;20.50;80.00;;;;;;10221668;28;20387;-90
2022/06/28 22:20:48;;;;;;;0.85;0.30;;;20.40;79.90;;;;;;10221857;28;20111;-90
2022/06/28 22:25:50;;;;;;;0.30;0.22;;;20.40;80.10;;;;;;10206458;28;20061;-90
2022/06/28 22:30:58;;;;;;;3.35;0.22;;;20.40;80.40;;;;;;10033890;28;20064;-90
2022/06/28 22:36:12;;;;;;;0.80;0.30;;;20.40;80.70;;;;;;10024296;29;20086;-90
2022/06/28 22:41:15;;;;;;;2.70;0.38;;;20.30;80.50;;;;;;10206743;28;20102;-89
2022/06/28 22:51:38;;;;;;;5.70;0.30;;;20.10;81.90;;;;;;10152203;29;20080;-64
2022/06/28 22:56:40;;;;;;;3.28;0.38;;;20.10;83.50;;;;;;10181479;29;20059;-63
2022/06/28 23:01:42;;;;;;;0.28;0.20;;;20.00;84.30;;;;;;10188767;29;20110;-64
2022/06/28 23:06:43;;;;;;;0.98;0.20;;;20.00;83.50;;;;;;10186367;29;20063;-65
2022/06/28 23:11:45;;;;;;;4.45;0.40;;;19.90;82.60;;;;;;10189277;29;20055;-64
2022/06/28 23:16:47;;;;;;;0.98;0.40;;;19.90;83.70;;;;;;10191534;29;20515;-64
2022/06/28 23:21:48;;;;;;;1.50;0.40;;;19.90;83.60;;;;;;10186142;29;20063;-62
2022/06/28 23:26:50;;;;;;;1.65;0.40;;;19.90;82.60;;;;;;10188044;29;20063;-63
2022/06/28 23:31:52;;;;;;;1.85;0.30;;;20.00;83.10;;;;;;10186036;29;20119;-63
2022/06/28 23:36:53;;;;;;;0.57;0.30;;;20.00;82.90;;;;;;10184119;29;20059;-63
2022/06/28 23:41:55;;;;;;;0.63;0.25;;;20.00;83.00;;;;;;10179347;29;20056;-64
2022/06/28 23:46:56;;;;;;;1.08;0.25;;;20.00;82.30;;;;;;10187790;29;20058;-64
2022/06/28 23:51:58;;;;;;;0.95;0.30;;;20.00;82.90;;;;;;10187480;29;20055;-64
2022/06/28 23:57:00;;;;;;;4.22;0.30;;;20.00;83.40;;;;;;10188065;29;20095;-64
